»·PEaware :: N416JK KMRY-KOAK

N416JK :: KMRY-KOAK

FLIGHT INFORMATION

Flight Status: Arrived
Operator: Privately registered:
United States
More flights under this callsign
Pilot: John K. (4202)
Aircraft: CESSNA 206 STATIONAIR
(C206)
More flights by this aircraft type
Origin: KMRY Monterey Peninsula
United States
Destination: KOAK Metro Oakland Intl
United States
More flights between these airports :: More routes between these airports
Route: MRY5 SNS V111 KARNN V301 SUNOL
File this flight plan on PilotEdge
Remarks: Repeat of yesterday, but different plane
Altitude:
(Current/Filed)
7,000ft
Speed:
(Current/Filed)
140kts
Departed: 08-Mar-19 09:35 AM
Arrived: 08-Mar-19 10:28 AM
Distance/Time
Traveled:
71nm/0:53
Distance/Time
To Go:
Arrived

Flight Plot

Page will automatically refresh every two minutes.

Flight plan parsing failed; only flown route is shown


Map Options




Map Legend


Flown Route
Filed Route
Departure Airport
Arrival Airport
Navaid (VOR, NDB)
Fix

Horizontal Profiles

Position Reports

Time Latitude Longitude Heading Altitude Ground
Speed
08-Mar-19 09:23 36.588808 -121.856958 360 259ft 0kts
08-Mar-19 09:24 36.588808 -121.856958 360 259ft 0kts
08-Mar-19 09:25 36.588808 -121.856958 360 259ft 0kts
08-Mar-19 09:26 36.588808 -121.856958 360 259ft 0kts
08-Mar-19 09:27 36.588808 -121.856958 360 259ft 0kts
08-Mar-19 09:28 36.588808 -121.856958 360 259ft 0kts
08-Mar-19 09:29 36.589353 -121.853983 108 259ft 17kts
08-Mar-19 09:30 36.586339 -121.845452 111 259ft 32kts
08-Mar-19 09:31 36.584006 -121.838487 114 259ft 39kts
08-Mar-19 09:32 36.583176 -121.836607 73 259ft 0kts
08-Mar-19 09:33 36.582818 -121.834563 89 259ft 13kts
08-Mar-19 09:34 36.589362 -121.851258 295 870ft 92kts
08-Mar-19 09:35 36.611559 -121.868217 338 1989ft 107kts
08-Mar-19 09:36 36.641719 -121.879695 339 2778ft 116kts
08-Mar-19 09:37 36.670213 -121.890263 339 3542ft 96kts
08-Mar-19 09:38 36.689330 -121.881200 67 4302ft 91kts
08-Mar-19 09:39 36.694234 -121.853365 67 4994ft 89kts
08-Mar-19 09:40 36.700952 -121.818522 68 5612ft 119kts
08-Mar-19 09:41 36.709434 -121.777630 68 6207ft 129kts
08-Mar-19 09:42 36.718684 -121.733701 68 6809ft 132kts
08-Mar-19 09:43 36.728605 -121.687696 68 6974ft 150kts
08-Mar-19 09:44 36.739537 -121.637969 68 6973ft 152kts
08-Mar-19 09:45 36.750294 -121.588399 68 6973ft 151kts
08-Mar-19 09:46 36.763803 -121.538793 50 6978ft 152kts
08-Mar-19 09:48 36.797123 -121.511040 20 6981ft 148kts
08-Mar-19 09:49 36.833431 -121.488180 21 6981ft 147kts
08-Mar-19 09:50 36.869321 -121.465470 20 6981ft 146kts
08-Mar-19 09:51 36.905089 -121.442804 20 6981ft 146kts
08-Mar-19 09:52 36.941299 -121.419458 21 6980ft 146kts
08-Mar-19 09:53 36.976907 -121.395629 21 6972ft 147kts
08-Mar-19 09:54 37.012404 -121.371923 21 6965ft 147kts
08-Mar-19 09:55 37.048005 -121.348147 21 6961ft 147kts
08-Mar-19 09:56 37.083866 -121.324175 21 6981ft 146kts
08-Mar-19 09:57 37.119392 -121.300410 21 6982ft 146kts
08-Mar-19 09:58 37.154662 -121.287696 321 6975ft 132kts
08-Mar-19 09:59 37.182585 -121.316720 315 6912ft 129kts
08-Mar-19 10:00 37.209213 -121.346924 314 6917ft 129kts
08-Mar-19 10:01 37.235425 -121.377216 314 6917ft 129kts
08-Mar-19 10:02 37.261334 -121.407322 315 6917ft 129kts
08-Mar-19 10:03 37.287297 -121.437545 315 6917ft 129kts
08-Mar-19 10:04 37.313322 -121.467867 315 6917ft 129kts
08-Mar-19 10:05 37.339698 -121.498621 315 6916ft 129kts
08-Mar-19 10:05 37.361072 -121.523604 316 6971ft 126kts
08-Mar-19 10:07 37.391124 -121.558688 316 6980ft 128kts
08-Mar-19 10:08 37.416992 -121.588928 315 6980ft 129kts
08-Mar-19 10:09 37.443286 -121.619747 316 6980ft 129kts
08-Mar-19 10:09 37.464732 -121.644899 316 6962ft 129kts
08-Mar-19 10:10 37.490493 -121.675112 316 6980ft 128kts
08-Mar-19 10:12 37.520703 -121.710546 314 6979ft 129kts
08-Mar-19 10:12 37.540824 -121.738032 304 6877ft 135kts
08-Mar-19 10:13 37.562886 -121.779483 304 5707ft 146kts
08-Mar-19 10:14 37.584636 -121.820002 304 4975ft 129kts
08-Mar-19 10:15 37.604080 -121.854214 304 4971ft 118kts
08-Mar-19 10:16 37.622260 -121.890227 291 4653ft 130kts
08-Mar-19 10:17 37.635398 -121.929926 291 4053ft 121kts
08-Mar-19 10:18 37.646959 -121.965288 291 3960ft 102kts
08-Mar-19 10:19 37.657420 -121.997337 292 3962ft 99kts
08-Mar-19 10:20 37.666761 -122.026740 291 3594ft 85kts
08-Mar-19 10:21 37.675674 -122.053384 290 3012ft 82kts
08-Mar-19 10:22 37.685558 -122.085596 294 2492ft 109kts
08-Mar-19 10:23 37.694748 -122.115718 287 1579ft 96kts
08-Mar-19 10:24 37.704939 -122.143581 292 1059ft 86kts
08-Mar-19 10:25 37.713714 -122.170503 291 604ft 81kts
08-Mar-19 10:26 37.721763 -122.195468 290 238ft 66kts
08-Mar-19 10:27 37.726452 -122.209183 317 12ft 15kts
08-Mar-19 10:28 37.727391 -122.209814 314 12ft 13kts
08-Mar-19 10:29 37.729713 -122.211552 305 12ft 0kts

Navigation Log

Ident Type
Flight plan parsing failed, navigation log unavailable